MSC Luisa — H9XU — position and weather

sailwx.info

Track history (hours):
 
Tides and Currents Weather Stations Pressure Air Temp Water Temp Dewpoint Dewpoint Depression Visibility Wind Speed Wind Dir Waves Ship Positions

MSC Luisa

Last reported at 2015-Mar-23 02:31 UTC. Time now 2015-Mar-28 16:06 UTC.
Position N 26°08' W 078°01'.

; draft 13.2 m.

Type: Ship. MMSI: 355308000.

Date/timePositionNaut miles runAvg speedWind from/ knotsBaromVisibWave heightAir tempDewpointWater temp
2015-Mar-23 02:31N 26°08' W 078°01'1918.3
2015-Mar-23 01:30N 26°16' W 078°20'1818.6
2015-Mar-23 00:33N 26°23' W 078°38'12 0.4
2015-Mar-21 19:15N 26°32' W 078°46'0 0.0
2015-Mar-21 18:26N 26°32' W 078°46'0 0.0
2015-Mar-21 16:13N 26°32' W 078°46'0 0.0
2015-Mar-21 10:05N 26°32' W 078°46'0 0.0
2015-Mar-20 08:06N 26°32' W 078°46'9 1.1
2015-Mar-20 00:08N 26°25' W 078°52'1 0.7
2015-Mar-19 23:18N 26°25' W 078°53'7 0.3
2015-Mar-18 21:21N 26°18' W 078°49'1 0.3
2015-Mar-18 17:33N 26°19' W 078°50'8 0.8
2015-Mar-18 08:29N 26°24' W 078°55'1 1.0
2015-Mar-18 07:21N 26°25' W 078°57'2 0.9
2015-Mar-18 05:32N 26°25' W 078°58'4 0.5
2015-Mar-17 21:32N 26°20' W 078°58'0 0.1
2015-Mar-17 18:27N 26°21' W 078°58'303 9.8
2015-Mar-16 11:33N 31°15' W 080°19'1717.3
2015-Mar-16 10:34N 31°32' W 080°24'1717.1
2015-Mar-16 09:34N 31°48' W 080°29'1010.3
2015-Mar-16 08:33N 31°55' W 080°38'10 9.9
2015-Mar-16 07:33N 32°01' W 080°48'10 9.5
2015-Mar-16 06:33N 32°04' W 080°58'6 6.3
2015-Mar-16 05:33N 32°05' W 081°06'4 3.6
2015-Mar-16 04:33N 32°08' W 081°08'0 0.0
2015-Mar-16 03:33N 32°08' W 081°09'0 0.0
2015-Mar-16 02:32N 32°08' W 081°09'0 0.0
2015-Mar-16 01:29N 32°08' W 081°09'0 0.0
2015-Mar-16 00:31N 32°08' W 081°09'0 0.0
2015-Mar-15 23:31N 32°08' W 081°09'0 0.0
2015-Mar-15 22:31N 32°08' W 081°09'0 0.0
2015-Mar-15 21:33N 32°08' W 081°09'0 0.0
2015-Mar-15 20:33N 32°08' W 081°09'0 0.0
2015-Mar-15 19:32N 32°08' W 081°09'0 0.0
2015-Mar-15 18:32N 32°08' W 081°09'0 0.0
2015-Mar-15 17:31N 32°08' W 081°09'0 0.0
2015-Mar-15 16:28N 32°08' W 081°09'0 0.0
2015-Mar-15 15:31N 32°08' W 081°09'0 0.0
2015-Mar-15 14:33N 32°08' W 081°09'0 0.0
2015-Mar-15 13:33N 32°08' W 081°08'0 0.0
2015-Mar-15 12:32N 32°08' W 081°09'0 0.0
2015-Mar-15 11:32N 32°08' W 081°09'0 0.0
2015-Mar-15 10:31N 32°08' W 081°09'0 0.0
2015-Mar-15 09:33N 32°08' W 081°09'1 0.9
2015-Mar-15 08:33N 32°07' W 081°08'6 6.1
2015-Mar-15 07:33N 32°06' W 081°01'1313.1
2015-Mar-15 06:34N 31°60' W 080°47'1111.0
2015-Mar-15 05:33N 31°57' W 080°35'  
Track history (hours):
 
Tides and Currents Weather Stations Pressure Air Temp Water Temp Dewpoint Dewpoint Depression Visibility Wind Speed Wind Dir Waves Ship Positions

MSC Luisa

Last reported at 2015-Mar-23 02:31 UTC. Time now 2015-Mar-28 16:06 UTC.
Position N 26°08' W 078°01'.

; draft 13.2 m.

Type: Ship. MMSI: 355308000.

Date/timePositionNaut miles runAvg speedWind from/ knotsBaromVisibWave heightAir tempDewpointWater temp
2015-Mar-23 02:31N 26°08' W 078°01'1918.3
2015-Mar-23 01:30N 26°16' W 078°20'1818.6
2015-Mar-23 00:33N 26°23' W 078°38'12 0.4
2015-Mar-21 19:15N 26°32' W 078°46'0 0.0
2015-Mar-21 18:26N 26°32' W 078°46'0 0.0
2015-Mar-21 16:13N 26°32' W 078°46'0 0.0
2015-Mar-21 10:05N 26°32' W 078°46'0 0.0
2015-Mar-20 08:06N 26°32' W 078°46'9 1.1
2015-Mar-20 00:08N 26°25' W 078°52'1 0.7
2015-Mar-19 23:18N 26°25' W 078°53'7 0.3
2015-Mar-18 21:21N 26°18' W 078°49'1 0.3
2015-Mar-18 17:33N 26°19' W 078°50'8 0.8
2015-Mar-18 08:29N 26°24' W 078°55'1 1.0
2015-Mar-18 07:21N 26°25' W 078°57'2 0.9
2015-Mar-18 05:32N 26°25' W 078°58'4 0.5
2015-Mar-17 21:32N 26°20' W 078°58'0 0.1
2015-Mar-17 18:27N 26°21' W 078°58'303 9.8
2015-Mar-16 11:33N 31°15' W 080°19'1717.3
2015-Mar-16 10:34N 31°32' W 080°24'1717.1
2015-Mar-16 09:34N 31°48' W 080°29'1010.3
2015-Mar-16 08:33N 31°55' W 080°38'10 9.9
2015-Mar-16 07:33N 32°01' W 080°48'10 9.5
2015-Mar-16 06:33N 32°04' W 080°58'6 6.3
2015-Mar-16 05:33N 32°05' W 081°06'4 3.6
2015-Mar-16 04:33N 32°08' W 081°08'0 0.0
2015-Mar-16 03:33N 32°08' W 081°09'0 0.0
2015-Mar-16 02:32N 32°08' W 081°09'0 0.0
2015-Mar-16 01:29N 32°08' W 081°09'0 0.0
2015-Mar-16 00:31N 32°08' W 081°09'0 0.0
2015-Mar-15 23:31N 32°08' W 081°09'0 0.0
2015-Mar-15 22:31N 32°08' W 081°09'0 0.0
2015-Mar-15 21:33N 32°08' W 081°09'0 0.0
2015-Mar-15 20:33N 32°08' W 081°09'0 0.0
2015-Mar-15 19:32N 32°08' W 081°09'0 0.0
2015-Mar-15 18:32N 32°08' W 081°09'0 0.0
2015-Mar-15 17:31N 32°08' W 081°09'0 0.0
2015-Mar-15 16:28N 32°08' W 081°09'0 0.0
2015-Mar-15 15:31N 32°08' W 081°09'0 0.0
2015-Mar-15 14:33N 32°08' W 081°09'0 0.0
2015-Mar-15 13:33N 32°08' W 081°08'0 0.0
2015-Mar-15 12:32N 32°08' W 081°09'0 0.0
2015-Mar-15 11:32N 32°08' W 081°09'0 0.0
2015-Mar-15 10:31N 32°08' W 081°09'0 0.0
2015-Mar-15 09:33N 32°08' W 081°09'1 0.9
2015-Mar-15 08:33N 32°07' W 081°08'6 6.1
2015-Mar-15 07:33N 32°06' W 081°01'1313.1
2015-Mar-15 06:34N 31°60' W 080°47'1111.0
2015-Mar-15 05:33N 31°57' W 080°35'  

Dump ship's entire track history